sensor_id;sensor_type;location;lat;lon;timestamp;pressure;altitude;pressure_sealevel;temperature;humidity
5679;BME280;2862;52.560;13.566;2023-11-21T00:05:10;99966.81;;;7.33;100.00
5679;BME280;2862;52.560;13.566;2023-11-21T00:15:17;99979.59;;;7.50;100.00
5679;BME280;2862;52.560;13.566;2023-11-21T00:25:20;99993.53;;;7.42;100.00
5679;BME280;2862;52.560;13.566;2023-11-21T00:35:24;99995.03;;;7.13;100.00
5679;BME280;2862;52.560;13.566;2023-11-21T00:45:28;100009.56;;;6.98;100.00
5679;BME280;2862;52.560;13.566;2023-11-21T00:55:32;100012.69;;;6.91;100.00
5679;BME280;2862;52.560;13.566;2023-11-21T01:05:36;100013.56;;;6.70;100.00
5679;BME280;2862;52.560;13.566;2023-11-21T01:15:41;100037.22;;;6.61;100.00
5679;BME280;2862;52.560;13.566;2023-11-21T01:25:44;100049.78;;;6.48;100.00
5679;BME280;2862;52.560;13.566;2023-11-21T01:35:49;100075.06;;;6.30;100.00
5679;BME280;2862;52.560;13.566;2023-11-21T01:45:53;100075.84;;;6.19;100.00
5679;BME280;2862;52.560;13.566;2023-11-21T01:56:00;100079.47;;;6.18;100.00
5679;BME280;2862;52.560;13.566;2023-11-21T02:06:03;100088.94;;;6.33;100.00
5679;BME280;2862;52.560;13.566;2023-11-21T02:16:09;100090.84;;;6.20;100.00
5679;BME280;2862;52.560;13.566;2023-11-21T02:26:13;100088.22;;;6.31;100.00
5679;BME280;2862;52.560;13.566;2023-11-21T02:36:16;100109.84;;;6.03;100.00
5679;BME280;2862;52.560;13.566;2023-11-21T02:46:21;100119.75;;;6.12;100.00
5679;BME280;2862;52.560;13.566;2023-11-21T02:56:24;100121.25;;;5.92;100.00
5679;BME280;2862;52.560;13.566;2023-11-21T03:06:29;100121.41;;;5.89;100.00
5679;BME280;2862;52.560;13.566;2023-11-21T03:16:35;100144.44;;;5.89;100.00
5679;BME280;2862;52.560;13.566;2023-11-21T03:26:44;100144.84;;;5.71;100.00
5679;BME280;2862;52.560;13.566;2023-11-21T03:36:48;100153.16;;;5.54;100.00
5679;BME280;2862;52.560;13.566;2023-11-21T03:46:52;100170.63;;;5.69;100.00
5679;BME280;2862;52.560;13.566;2023-11-21T03:56:55;100169.88;;;5.67;100.00
5679;BME280;2862;52.560;13.566;2023-11-21T04:06:59;100182.50;;;5.76;100.00
5679;BME280;2862;52.560;13.566;2023-11-21T04:17:02;100189.63;;;5.63;100.00
5679;BME280;2862;52.560;13.566;2023-11-21T04:27:07;100210.78;;;5.39;100.00
5679;BME280;2862;52.560;13.566;2023-11-21T04:37:10;100215.31;;;5.37;100.00
5679;BME280;2862;52.560;13.566;2023-11-21T04:47:15;100223.94;;;5.41;100.00
5679;BME280;2862;52.560;13.566;2023-11-21T04:57:18;100232.06;;;5.50;100.00
5679;BME280;2862;52.560;13.566;2023-11-21T05:07:22;100247.56;;;5.56;100.00
5679;BME280;2862;52.560;13.566;2023-11-21T05:17:25;100261.66;;;5.31;100.00
5679;BME280;2862;52.560;13.566;2023-11-21T05:27:30;100266.44;;;5.26;100.00
5679;BME280;2862;52.560;13.566;2023-11-21T05:37:33;100282.03;;;5.44;100.00
5679;BME280;2862;52.560;13.566;2023-11-21T05:47:38;100294.00;;;5.49;100.00
5679;BME280;2862;52.560;13.566;2023-11-21T05:57:43;100302.88;;;6.12;100.00
5679;BME280;2862;52.560;13.566;2023-11-21T06:07:47;100322.13;;;5.65;100.00
5679;BME280;2862;52.560;13.566;2023-11-21T06:17:51;100327.31;;;5.53;100.00
5679;BME280;2862;52.560;13.566;2023-11-21T06:27:56;100352.84;;;5.29;100.00
5679;BME280;2862;52.560;13.566;2023-11-21T06:37:59;100366.44;;;5.37;100.00
5679;BME280;2862;52.560;13.566;2023-11-21T06:48:03;100390.72;;;5.44;100.00
5679;BME280;2862;52.560;13.566;2023-11-21T06:58:06;100391.25;;;5.36;100.00
5679;BME280;2862;52.560;13.566;2023-11-21T07:08:11;100399.44;;;5.06;100.00
5679;BME280;2862;52.560;13.566;2023-11-21T07:18:14;100407.25;;;4.95;100.00
5679;BME280;2862;52.560;13.566;2023-11-21T07:28:19;100434.31;;;4.86;100.00
5679;BME280;2862;52.560;13.566;2023-11-21T07:38:22;100433.56;;;4.84;100.00
5679;BME280;2862;52.560;13.566;2023-11-21T07:48:26;100430.22;;;4.94;100.00
5679;BME280;2862;52.560;13.566;2023-11-21T07:58:29;100443.56;;;4.93;100.00
5679;BME280;2862;52.560;13.566;2023-11-21T08:08:34;100469.31;;;4.91;100.00
5679;BME280;2862;52.560;13.566;2023-11-21T08:18:37;100479.34;;;5.00;100.00
5679;BME280;2862;52.560;13.566;2023-11-21T08:28:43;100486.72;;;4.80;100.00
5679;BME280;2862;52.560;13.566;2023-11-21T08:38:46;100494.50;;;4.84;100.00
5679;BME280;2862;52.560;13.566;2023-11-21T08:48:51;100506.69;;;4.58;100.00
5679;BME280;2862;52.560;13.566;2023-11-21T08:58:55;100530.91;;;4.51;100.00
5679;BME280;2862;52.560;13.566;2023-11-21T09:09:00;100540.56;;;4.52;100.00
5679;BME280;2862;52.560;13.566;2023-11-21T09:19:03;100554.19;;;4.89;100.00
5679;BME280;2862;52.560;13.566;2023-11-21T09:29:08;100567.31;;;4.91;100.00
5679;BME280;2862;52.560;13.566;2023-11-21T09:39:11;100585.09;;;5.03;100.00
5679;BME280;2862;52.560;13.566;2023-11-21T09:49:22;100593.53;;;4.95;100.00
5679;BME280;2862;52.560;13.566;2023-11-21T09:59:30;100596.63;;;4.45;100.00
5679;BME280;2862;52.560;13.566;2023-11-21T10:09:35;100618.25;;;4.37;100.00
5679;BME280;2862;52.560;13.566;2023-11-21T10:19:39;100610.06;;;4.42;100.00
5679;BME280;2862;52.560;13.566;2023-11-21T10:29:44;100612.84;;;4.24;100.00
5679;BME280;2862;52.560;13.566;2023-11-21T10:39:47;100619.41;;;4.17;100.00
5679;BME280;2862;52.560;13.566;2023-11-21T10:49:52;100630.19;;;4.14;100.00
5679;BME280;2862;52.560;13.566;2023-11-21T10:59:56;100642.25;;;4.04;100.00
5679;BME280;2862;52.560;13.566;2023-11-21T11:10:00;100643.16;;;4.19;100.00
5679;BME280;2862;52.560;13.566;2023-11-21T11:20:08;100671.94;;;3.78;100.00
5679;BME280;2862;52.560;13.566;2023-11-21T11:30:22;100665.44;;;4.15;100.00
5679;BME280;2862;52.560;13.566;2023-11-21T11:40:39;100688.56;;;4.11;100.00
5679;BME280;2862;52.560;13.566;2023-11-21T11:51:02;100699.25;;;3.94;100.00
5679;BME280;2862;52.560;13.566;2023-11-21T12:01:06;100716.16;;;3.91;100.00
5679;BME280;2862;52.560;13.566;2023-11-21T12:11:11;100726.16;;;4.02;100.00
5679;BME280;2862;52.560;13.566;2023-11-21T12:21:15;100737.22;;;3.93;100.00
5679;BME280;2862;52.560;13.566;2023-11-21T12:31:19;100761.97;;;3.92;100.00
5679;BME280;2862;52.560;13.566;2023-11-21T12:41:22;100764.25;;;3.82;100.00
5679;BME280;2862;52.560;13.566;2023-11-21T12:51:26;100767.69;;;3.84;100.00
5679;BME280;2862;52.560;13.566;2023-11-21T13:01:31;100777.66;;;3.79;100.00
5679;BME280;2862;52.560;13.566;2023-11-21T13:11:36;100794.44;;;3.78;100.00
5679;BME280;2862;52.560;13.566;2023-11-21T13:21:38;100807.16;;;3.71;100.00
5679;BME280;2862;52.560;13.566;2023-11-21T13:31:43;100826.81;;;3.50;100.00
5679;BME280;2862;52.560;13.566;2023-11-21T13:41:46;100833.34;;;3.43;100.00
5679;BME280;2862;52.560;13.566;2023-11-21T13:51:57;100841.91;;;3.31;100.00
5679;BME280;2862;52.560;13.566;2023-11-21T14:02:02;100861.00;;;3.01;100.00
5679;BME280;2862;52.560;13.566;2023-11-21T14:12:20;100896.88;;;2.88;100.00
5679;BME280;2862;52.560;13.566;2023-11-21T14:22:23;100908.91;;;2.76;100.00
5679;BME280;2862;52.560;13.566;2023-11-21T14:32:29;100929.28;;;2.73;100.00
5679;BME280;2862;52.560;13.566;2023-11-21T14:42:32;100939.72;;;2.76;100.00
5679;BME280;2862;52.560;13.566;2023-11-21T14:52:39;100956.84;;;2.48;100.00
5679;BME280;2862;52.560;13.566;2023-11-21T15:02:56;100951.69;;;2.45;100.00
5679;BME280;2862;52.560;13.566;2023-11-21T15:13:01;100983.78;;;2.36;100.00
5679;BME280;2862;52.560;13.566;2023-11-21T15:23:05;100994.72;;;2.08;100.00
5679;BME280;2862;52.560;13.566;2023-11-21T15:33:11;101012.31;;;2.07;100.00
5679;BME280;2862;52.560;13.566;2023-11-21T15:43:14;101027.13;;;2.10;100.00
5679;BME280;2862;52.560;13.566;2023-11-21T15:53:20;101037.75;;;2.08;100.00
5679;BME280;2862;52.560;13.566;2023-11-21T16:03:23;101049.94;;;2.11;100.00
5679;BME280;2862;52.560;13.566;2023-11-21T16:13:30;101058.13;;;2.05;100.00
5679;BME280;2862;52.560;13.566;2023-11-21T16:23:34;101085.34;;;2.05;98.37
5679;BME280;2862;52.560;13.566;2023-11-21T16:33:40;101103.44;;;2.15;98.75
5679;BME280;2862;52.560;13.566;2023-11-21T16:43:43;101127.66;;;2.24;98.02
5679;BME280;2862;52.560;13.566;2023-11-21T16:53:47;101131.84;;;2.08;98.24
5679;BME280;2862;52.560;13.566;2023-11-21T17:03:50;101142.91;;;1.96;98.16
5679;BME280;2862;52.560;13.566;2023-11-21T17:13:55;101156.78;;;2.01;97.98
5679;BME280;2862;52.560;13.566;2023-11-21T17:23:58;101186.44;;;2.06;98.27
5679;BME280;2862;52.560;13.566;2023-11-21T17:34:03;101195.69;;;2.16;94.90
5679;BME280;2862;52.560;13.566;2023-11-21T17:44:06;101203.56;;;1.96;94.40
5679;BME280;2862;52.560;13.566;2023-11-21T17:54:11;101221.53;;;1.86;94.61
5679;BME280;2862;52.560;13.566;2023-11-21T18:04:14;101248.19;;;2.00;94.27
5679;BME280;2862;52.560;13.566;2023-11-21T18:14:18;101267.41;;;2.04;95.06
5679;BME280;2862;52.560;13.566;2023-11-21T18:24:21;101282.72;;;1.94;95.13
5679;BME280;2862;52.560;13.566;2023-11-21T18:34:25;101295.41;;;1.84;95.47
5679;BME280;2862;52.560;13.566;2023-11-21T18:44:28;101315.41;;;1.90;95.22
5679;BME280;2862;52.560;13.566;2023-11-21T18:54:33;101322.03;;;1.77;95.15
5679;BME280;2862;52.560;13.566;2023-11-21T19:04:39;101333.81;;;1.92;93.04
5679;BME280;2862;52.560;13.566;2023-11-21T19:14:47;101349.00;;;1.85;92.20
5679;BME280;2862;52.560;13.566;2023-11-21T19:24:51;101366.13;;;1.73;92.50
5679;BME280;2862;52.560;13.566;2023-11-21T19:34:55;101387.84;;;1.80;92.82
5679;BME280;2862;52.560;13.566;2023-11-21T19:44:58;101401.34;;;1.96;91.02
5679;BME280;2862;52.560;13.566;2023-11-21T19:55:06;101417.72;;;1.80;91.35
5679;BME280;2862;52.560;13.566;2023-11-21T20:05:12;101434.69;;;1.72;91.80
5679;BME280;2862;52.560;13.566;2023-11-21T20:15:18;101425.28;;;1.65;91.71
5679;BME280;2862;52.560;13.566;2023-11-21T20:25:20;101436.66;;;1.67;91.71
5679;BME280;2862;52.560;13.566;2023-11-21T20:35:24;101451.50;;;1.69;91.67
5679;BME280;2862;52.560;13.566;2023-11-21T20:45:28;101469.25;;;1.64;91.66
5679;BME280;2862;52.560;13.566;2023-11-21T20:55:32;101491.59;;;1.79;90.66
5679;BME280;2862;52.560;13.566;2023-11-21T21:05:35;101496.03;;;1.77;90.33
5679;BME280;2862;52.560;13.566;2023-11-21T21:15:40;101496.88;;;1.79;90.88
5679;BME280;2862;52.560;13.566;2023-11-21T21:25:43;101505.50;;;1.57;90.81
5679;BME280;2862;52.560;13.566;2023-11-21T21:35:47;101516.19;;;1.53;90.83
5679;BME280;2862;52.560;13.566;2023-11-21T21:45:50;101532.34;;;1.42;91.15
5679;BME280;2862;52.560;13.566;2023-11-21T21:55:55;101544.91;;;1.34;91.84
5679;BME280;2862;52.560;13.566;2023-11-21T22:05:58;101549.78;;;1.18;89.81
5679;BME280;2862;52.560;13.566;2023-11-21T22:16:04;101558.00;;;1.09;89.96
5679;BME280;2862;52.560;13.566;2023-11-21T22:26:07;101570.44;;;1.04;90.22
5679;BME280;2862;52.560;13.566;2023-11-21T22:36:14;101564.66;;;1.21;90.57
5679;BME280;2862;52.560;13.566;2023-11-21T22:46:17;101579.25;;;1.31;90.04
5679;BME280;2862;52.560;13.566;2023-11-21T22:56:22;101595.69;;;1.39;90.38
5679;BME280;2862;52.560;13.566;2023-11-21T23:06:25;101606.16;;;1.41;91.33
5679;BME280;2862;52.560;13.566;2023-11-21T23:16:31;101601.38;;;1.25;91.59
5679;BME280;2862;52.560;13.566;2023-11-21T23:26:34;101614.97;;;1.12;91.85
5679;BME280;2862;52.560;13.566;2023-11-21T23:36:39;101612.19;;;1.16;91.63
5679;BME280;2862;52.560;13.566;2023-11-21T23:46:47;101620.81;;;1.21;92.05
5679;BME280;2862;52.560;13.566;2023-11-21T23:57:00;101649.31;;;1.07;91.37
